Pagina principale
METAR-TAF:

METAR-TAF

Aeroporti :

Prato Nevoso, Italia

Monte Malanotte

latitudine: 44-15N, longitudine: 007-48E, altezza: 1741 m

Osservazione

Il bollettino è stato emesso 48 minuti fa, alle 05:55 UTC
Vento 4 kt da sud
Temperature 18°C
Umidità 56%
Pressione 1008 hPa
Visibilità 10 km o più
nessuna nube inferiore a 1500 m e nessun cumulonembo

METAR: LIMY 260555Z 19004KT CAVOK 18/09 Q1008 RMK FEW FEW200 VAL NIL VIS MIN 9999

Ora: 08:43 (06:43 UTC)


TAF: mancante

Osservazioni e previsioni meteorologiche di più di 4000 aeroporti (messaggi METAR e TAF).

Le stazioni disponibili sono rappresentate dai dischi gialli e rossi sulla carta.

Puntare il mouse per vedere il nome della stazione.

Clicca sopra per visualizzare le osservazioni e previsioni meteorologiche.

Per cambiare la mappa : fare clic sui pulsanti verdi con una croce nera per ingrandire, il pulsante verde con un trattino per diminuire, o sulla freccia verde per le mappe adiacenti.


METAR-TAF: